createdAt,value
2019-01-23T00:00:54.003Z,54.73
2019-01-23T00:03:42.300Z,59.20
2019-01-23T00:06:30.443Z,54.60
2019-01-23T00:09:18.327Z,60.73
2019-01-23T00:12:06.935Z,54.50
2019-01-23T00:14:55.218Z,48.63
2019-01-23T00:17:43.440Z,63.83
2019-01-23T00:20:31.731Z,56.30
2019-01-23T00:23:20.434Z,57.43
2019-01-23T00:26:08.820Z,53.20
2019-01-23T00:28:56.872Z,53.87
2019-01-23T00:31:44.949Z,56.17
2019-01-23T00:34:33.869Z,59.60
2019-01-23T00:37:22.116Z,55.73
2019-01-23T00:40:10.424Z,53.03
2019-01-23T00:42:58.477Z,57.93
2019-01-23T00:45:47.042Z,53.73
2019-01-23T00:48:35.482Z,50.63
2019-01-23T00:51:24.370Z,56.50
2019-01-23T00:54:13.093Z,55.50
2019-01-23T00:57:00.816Z,54.50
2019-01-23T00:59:48.959Z,59.43
2019-01-23T01:02:36.798Z,56.50
2019-01-23T01:05:25.168Z,57.50
2019-01-23T01:08:13.562Z,54.20
2019-01-23T01:11:02.000Z,60.73
2019-01-23T01:13:50.604Z,58.87
2019-01-23T01:16:39.199Z,59.00
2019-01-23T01:19:27.759Z,58.83
2019-01-23T01:22:16.642Z,61.07
2019-01-23T01:25:06.599Z,59.33
2019-01-23T01:27:54.466Z,60.47
2019-01-23T01:30:42.527Z,59.47
2019-01-23T01:33:34.032Z,59.33
2019-01-23T01:36:20.768Z,55.63
2019-01-23T01:39:09.188Z,56.80
2019-01-23T01:41:57.115Z,56.80
2019-01-23T01:44:45.828Z,66.07
2019-01-23T01:47:34.123Z,61.57
2019-01-23T01:50:22.901Z,63.10
2019-01-23T01:53:11.098Z,67.63
2019-01-23T01:55:59.198Z,57.60
2019-01-23T01:58:47.931Z,56.03
2019-01-23T02:01:36.316Z,65.43
2019-01-23T02:04:24.317Z,69.70
2019-01-23T02:07:12.699Z,67.20
2019-01-23T02:10:01.468Z,55.70
2019-01-23T02:12:49.975Z,57.67
2019-01-23T02:15:38.122Z,58.23
2019-01-23T02:18:26.975Z,60.40
2019-01-23T02:21:15.885Z,61.00
2019-01-23T02:24:04.255Z,60.77
2019-01-23T02:26:52.251Z,56.63
2019-01-23T02:29:41.167Z,63.00
2019-01-23T02:32:29.831Z,60.67
2019-01-23T02:35:18.578Z,57.30
2019-01-23T02:38:06.867Z,53.73
2019-01-23T02:40:55.381Z,61.90
2019-01-23T02:43:43.344Z,57.33
2019-01-23T02:46:31.353Z,55.37
2019-01-23T02:49:18.845Z,53.50
2019-01-23T02:52:07.010Z,55.50
2019-01-23T02:54:56.128Z,54.40
2019-01-23T02:57:44.328Z,56.60
2019-01-23T03:00:31.951Z,54.33
2019-01-23T03:03:20.524Z,51.83
2019-01-23T03:06:08.775Z,48.53
2019-01-23T03:08:57.593Z,52.33
2019-01-23T03:11:46.095Z,49.43
2019-01-23T03:14:34.479Z,47.40
2019-01-23T03:17:22.816Z,48.63
2019-01-23T03:20:13.372Z,49.80
2019-01-23T03:23:01.761Z,48.67
2019-01-23T03:25:50.409Z,49.27
2019-01-23T03:28:39.139Z,50.13
2019-01-23T03:31:27.276Z,48.10
2019-01-23T03:34:15.496Z,48.10
2019-01-23T03:37:04.809Z,46.90
2019-01-23T03:39:53.316Z,53.13
2019-01-23T03:42:41.336Z,48.23
2019-01-23T03:45:29.375Z,50.43
2019-01-23T03:48:17.664Z,53.80
2019-01-23T03:51:05.536Z,52.40
2019-01-23T03:53:53.547Z,49.63
2019-01-23T03:56:41.505Z,50.50
2019-01-23T03:59:32.238Z,52.43
2019-01-23T04:02:19.361Z,50.17
2019-01-23T04:05:08.813Z,53.67
2019-01-23T04:07:56.764Z,58.07
2019-01-23T04:10:44.363Z,58.23
2019-01-23T04:13:32.994Z,48.50
2019-01-23T04:16:20.610Z,50.53
2019-01-23T04:19:09.317Z,55.87
2019-01-23T04:21:57.302Z,58.37
2019-01-23T04:24:46.163Z,59.33
2019-01-23T04:27:33.871Z,52.10
2019-01-23T04:30:23.746Z,54.27
2019-01-23T04:33:11.540Z,54.80
2019-01-23T04:35:59.512Z,56.03
2019-01-23T04:38:48.033Z,54.27
2019-01-23T04:41:36.160Z,55.20
2019-01-23T04:44:24.414Z,53.73
2019-01-23T04:47:12.696Z,59.37
2019-01-23T04:50:01.005Z,57.27
2019-01-23T04:53:00.951Z,55.57
2019-01-23T04:55:49.501Z,53.80
2019-01-23T04:58:38.051Z,56.53
2019-01-23T05:01:26.466Z,56.37
2019-01-23T05:04:14.666Z,51.93
2019-01-23T05:07:03.091Z,56.53
2019-01-23T05:09:51.649Z,56.60
2019-01-23T05:12:39.344Z,61.57
2019-01-23T05:15:27.551Z,60.03
2019-01-23T05:18:15.812Z,53.40
2019-01-23T05:21:04.455Z,58.93
2019-01-23T05:23:52.263Z,58.73
2019-01-23T05:26:40.422Z,55.20
2019-01-23T05:29:28.719Z,54.20
2019-01-23T05:32:16.318Z,57.37
2019-01-23T05:35:05.827Z,58.80
2019-01-23T05:37:53.671Z,59.63
2019-01-23T05:40:41.876Z,58.27
2019-01-23T05:43:29.837Z,65.37
2019-01-23T05:46:18.151Z,55.40
2019-01-23T05:49:06.662Z,57.30
2019-01-23T05:51:54.960Z,59.90
2019-01-23T05:54:42.989Z,63.57
2019-01-23T05:57:31.484Z,60.87
2019-01-23T06:00:21.440Z,60.87
2019-01-23T06:03:09.758Z,61.37
2019-01-23T06:05:57.470Z,61.50
2019-01-23T06:08:45.871Z,62.00
2019-01-23T06:11:34.127Z,69.30
2019-01-23T06:14:22.464Z,64.37
2019-01-23T06:17:10.946Z,65.70
2019-01-23T06:19:59.387Z,66.60
2019-01-23T06:22:47.802Z,63.03
2019-01-23T06:25:35.647Z,63.90
2019-01-23T06:28:23.586Z,65.90
2019-01-23T06:31:11.684Z,63.00
2019-01-23T06:33:59.558Z,67.13
2019-01-23T06:36:48.062Z,66.87
2019-01-23T06:39:36.403Z,64.60
2019-01-23T06:42:24.183Z,58.33
2019-01-23T06:45:13.694Z,62.20
2019-01-23T06:48:01.787Z,67.27
2019-01-23T06:50:50.056Z,66.03
2019-01-23T06:53:38.110Z,65.17
2019-01-23T06:56:26.308Z,68.47
2019-01-23T06:59:15.603Z,62.90
2019-01-23T07:02:03.750Z,71.17
2019-01-23T07:04:52.539Z,64.30
2019-01-23T07:07:40.322Z,63.50
2019-01-23T07:10:28.568Z,63.07
2019-01-23T07:13:16.772Z,61.73
2019-01-23T07:16:05.181Z,62.93
2019-01-23T07:18:53.639Z,65.17
2019-01-23T07:21:41.875Z,60.90
2019-01-23T07:24:30.118Z,56.90
2019-01-23T07:27:17.974Z,62.93
2019-01-23T07:30:10.582Z,61.20
2019-01-23T07:32:58.618Z,58.63
2019-01-23T07:35:46.891Z,64.20
2019-01-23T07:38:35.075Z,57.23
2019-01-23T07:41:23.158Z,57.57
2019-01-23T07:44:11.543Z,52.77
2019-01-23T07:46:59.754Z,56.97
2019-01-23T07:49:47.766Z,52.67
2019-01-23T07:52:35.951Z,54.00
2019-01-23T07:55:23.828Z,54.30
2019-01-23T07:58:12.292Z,51.10
2019-01-23T08:01:00.479Z,49.13
2019-01-23T08:03:48.602Z,48.97
2019-01-23T08:06:36.767Z,52.67
2019-01-23T08:09:25.487Z,50.03
2019-01-23T08:12:20.750Z,50.73
2019-01-23T08:15:14.273Z,53.67
2019-01-23T08:18:08.156Z,50.80
2019-01-23T08:20:57.203Z,52.37
2019-01-23T08:23:45.240Z,48.70
2019-01-23T08:26:33.659Z,51.03
2019-01-23T08:29:22.154Z,45.80
2019-01-23T08:32:10.094Z,49.80
2019-01-23T08:34:58.222Z,53.33
2019-01-23T08:37:46.447Z,48.23
2019-01-23T08:40:35.000Z,48.20
2019-01-23T08:43:23.335Z,46.00
2019-01-23T08:46:11.822Z,53.50
2019-01-23T08:48:59.958Z,52.10
2019-01-23T08:51:47.431Z,54.30
2019-01-23T08:54:35.994Z,48.43
2019-01-23T08:57:24.347Z,53.33
2019-01-23T09:00:13.179Z,56.70
2019-01-23T09:03:01.102Z,47.13
2019-01-23T09:05:49.473Z,51.20
2019-01-23T09:08:37.847Z,51.77
2019-01-23T09:11:26.286Z,50.83
2019-01-23T09:14:14.351Z,47.60
2019-01-23T09:17:02.678Z,50.93
2019-01-23T09:19:51.534Z,46.73
2019-01-23T09:22:40.319Z,48.50
2019-01-23T09:25:28.357Z,47.40
2019-01-23T09:28:16.236Z,43.73
2019-01-23T09:31:24.402Z,47.20
2019-01-23T09:34:44.967Z,45.80
2019-01-23T09:37:45.179Z,47.10
2019-01-23T09:40:57.167Z,47.47
2019-01-23T09:44:29.083Z,46.93
2019-01-23T09:47:44.571Z,47.60
2019-01-23T09:50:50.915Z,51.97
2019-01-23T09:53:46.851Z,47.13
2019-01-23T09:56:34.910Z,50.20
2019-01-23T09:59:23.124Z,50.47
2019-01-23T10:02:11.035Z,49.67
2019-01-23T10:04:59.199Z,49.00
2019-01-23T10:07:47.179Z,47.93
2019-01-23T10:10:35.502Z,54.40
2019-01-23T10:13:22.962Z,43.00
2019-01-23T10:16:16.391Z,47.60
2019-01-23T10:19:04.838Z,47.67
2019-01-23T10:21:52.934Z,47.90
2019-01-23T10:24:40.971Z,48.77
2019-01-23T10:27:29.295Z,46.77
2019-01-23T10:30:17.650Z,47.60
2019-01-23T10:33:05.650Z,51.57
2019-01-23T10:35:53.647Z,53.47
2019-01-23T10:38:41.447Z,45.13
2019-01-23T10:41:29.667Z,46.00
2019-01-23T10:44:17.550Z,48.40
2019-01-23T10:47:05.658Z,48.87
2019-01-23T10:49:53.399Z,48.00
2019-01-23T10:52:41.946Z,49.03
2019-01-23T10:55:30.439Z,46.87
2019-01-23T10:58:19.368Z,52.80
2019-01-23T11:01:13.236Z,50.73
2019-01-23T11:03:56.974Z,47.70
2019-01-23T11:06:44.628Z,50.80
2019-01-23T11:09:32.083Z,49.33
2019-01-23T11:12:20.127Z,47.97
2019-01-23T11:15:08.422Z,48.90
2019-01-23T11:17:56.458Z,46.00
2019-01-23T11:20:44.658Z,53.83
2019-01-23T11:23:32.587Z,50.33
2019-01-23T11:26:20.867Z,45.90
2019-01-23T11:29:11.354Z,51.93
2019-01-23T11:31:59.315Z,49.60
2019-01-23T11:34:47.520Z,47.20
2019-01-23T11:37:35.680Z,41.83
2019-01-23T11:40:28.738Z,43.60
2019-01-23T11:43:17.151Z,45.07
2019-01-23T11:46:04.865Z,44.43
2019-01-23T11:48:53.527Z,44.37
2019-01-23T11:51:41.359Z,46.60
2019-01-23T11:54:29.830Z,46.47
2019-01-23T11:57:18.111Z,46.47
2019-01-23T12:00:08.768Z,51.00
2019-01-23T12:02:56.890Z,51.80
2019-01-23T12:05:45.487Z,42.90
2019-01-23T12:08:33.875Z,47.03
2019-01-23T12:11:21.798Z,44.87
2019-01-23T12:14:10.264Z,50.23
2019-01-23T12:16:58.491Z,46.67
2019-01-23T12:19:46.785Z,45.50
2019-01-23T12:22:35.283Z,44.13
2019-01-23T12:25:23.241Z,46.07
2019-01-23T12:28:11.619Z,43.20
2019-01-23T12:30:59.915Z,43.37
2019-01-23T12:33:47.658Z,43.07
2019-01-23T12:36:35.537Z,43.63
2019-01-23T12:39:23.701Z,45.80
2019-01-23T12:42:11.705Z,44.53
2019-01-23T12:44:59.616Z,47.30
2019-01-23T12:47:47.222Z,44.30
2019-01-23T12:50:35.375Z,45.90
2019-01-23T12:53:22.911Z,46.37
2019-01-23T12:56:11.210Z,44.63
2019-01-23T12:58:59.435Z,45.07
2019-01-23T13:01:48.106Z,46.87
2019-01-23T13:04:35.920Z,37.90
2019-01-23T13:07:23.895Z,41.30
2019-01-23T13:10:15.183Z,47.50
2019-01-23T13:13:03.301Z,42.90
2019-01-23T13:15:51.843Z,43.07
2019-01-23T13:18:39.875Z,43.97
2019-01-23T13:21:28.143Z,46.53
2019-01-23T13:24:16.170Z,50.83
2019-01-23T13:27:04.610Z,45.67
2019-01-23T13:29:52.103Z,49.60
2019-01-23T13:32:40.625Z,49.30
2019-01-23T13:35:34.897Z,45.83
2019-01-23T13:38:23.140Z,45.97
2019-01-23T13:41:11.994Z,48.73
2019-01-23T13:44:00.374Z,48.23
2019-01-23T13:46:47.879Z,45.60
2019-01-23T13:49:35.902Z,50.33
2019-01-23T13:52:24.207Z,48.13
2019-01-23T13:55:13.432Z,49.50
2019-01-23T13:58:01.455Z,53.70
2019-01-23T14:00:49.241Z,48.90
2019-01-23T14:03:37.230Z,50.07
2019-01-23T14:06:25.190Z,49.53
2019-01-23T14:09:13.161Z,51.23
2019-01-23T14:12:01.114Z,52.00
2019-01-23T14:14:49.420Z,49.17
2019-01-23T14:17:37.319Z,49.13
2019-01-23T14:20:25.386Z,52.30
2019-01-23T14:23:13.274Z,54.73
2019-01-23T14:26:01.840Z,44.80
2019-01-23T14:28:50.086Z,48.90
2019-01-23T14:31:38.326Z,46.50
2019-01-23T14:34:26.518Z,53.80
2019-01-23T14:37:14.947Z,49.40
2019-01-23T14:40:03.170Z,55.73
2019-01-23T14:42:51.671Z,55.93
2019-01-23T14:45:40.115Z,54.07
2019-01-23T14:48:27.879Z,54.10
2019-01-23T14:51:16.075Z,44.57
2019-01-23T14:54:04.531Z,49.47
2019-01-23T14:56:52.119Z,53.73
2019-01-23T14:59:40.083Z,46.93
2019-01-23T15:02:28.727Z,50.10
2019-01-23T15:05:17.430Z,51.03
2019-01-23T15:08:05.270Z,55.50
2019-01-23T15:10:53.165Z,58.47
2019-01-23T15:13:41.556Z,53.60
2019-01-23T15:16:29.782Z,55.47
2019-01-23T15:19:18.038Z,56.03
2019-01-23T15:22:06.880Z,53.07
2019-01-23T15:24:55.190Z,59.80
2019-01-23T15:27:43.549Z,50.17
2019-01-23T15:30:32.291Z,54.97
2019-01-23T15:33:20.085Z,48.77
2019-01-23T15:36:08.258Z,55.23
2019-01-23T15:38:55.925Z,49.90
2019-01-23T15:41:43.850Z,52.57
2019-01-23T15:44:32.246Z,48.00
2019-01-23T15:47:20.558Z,51.10
2019-01-23T15:50:11.369Z,53.40
2019-01-23T15:52:59.783Z,58.47
2019-01-23T15:55:47.763Z,47.97
2019-01-23T15:58:35.515Z,54.63
2019-01-23T16:01:23.867Z,53.97
2019-01-23T16:04:11.975Z,55.53
2019-01-23T16:06:59.435Z,56.00
2019-01-23T16:09:47.627Z,56.43
2019-01-23T16:12:35.767Z,60.67
2019-01-23T16:15:25.024Z,54.30
2019-01-23T16:18:13.141Z,59.90
2019-01-23T16:21:01.432Z,58.40
2019-01-23T16:23:49.635Z,57.57
2019-01-23T16:26:37.438Z,51.40
2019-01-23T16:29:26.136Z,63.67
2019-01-23T16:32:14.891Z,57.37
2019-01-23T16:35:03.519Z,56.07
2019-01-23T16:37:51.848Z,54.63
2019-01-23T16:40:39.733Z,58.03
2019-01-23T16:43:27.986Z,55.73
2019-01-23T16:46:15.969Z,53.43
2019-01-23T16:49:04.244Z,52.77
2019-01-23T16:51:52.318Z,56.30
2019-01-23T16:54:40.506Z,54.53
2019-01-23T16:57:28.799Z,53.40
2019-01-23T17:00:19.211Z,52.40
2019-01-23T17:03:07.763Z,55.43
2019-01-23T17:05:55.710Z,55.47
2019-01-23T17:08:43.174Z,49.50
2019-01-23T17:11:31.135Z,53.67
2019-01-23T17:14:18.971Z,49.80
2019-01-23T17:17:07.047Z,52.97
2019-01-23T17:19:59.009Z,56.20
2019-01-23T17:22:44.623Z,54.33
2019-01-23T17:25:32.671Z,59.10
2019-01-23T17:28:21.078Z,52.80
2019-01-23T17:31:09.779Z,52.77
2019-01-23T17:33:58.198Z,51.13
2019-01-23T17:36:46.146Z,58.87
2019-01-23T17:39:34.632Z,63.17
2019-01-23T17:42:22.603Z,61.07
2019-01-23T17:45:13.899Z,57.03
2019-01-23T17:48:02.269Z,55.80
2019-01-23T17:50:52.258Z,53.70
2019-01-23T17:53:40.863Z,55.23
2019-01-23T17:56:29.224Z,60.20
2019-01-23T17:59:17.569Z,59.50
2019-01-23T18:02:05.912Z,57.10
2019-01-23T18:04:53.815Z,57.50
2019-01-23T18:07:43.814Z,56.00
2019-01-23T18:10:32.072Z,60.37
2019-01-23T18:13:20.231Z,56.03
2019-01-23T18:16:10.567Z,57.13
2019-01-23T18:18:58.373Z,57.77
2019-01-23T18:22:16.552Z,59.23
2019-01-23T18:25:06.616Z,50.27
2019-01-23T18:27:54.559Z,53.40
2019-01-23T18:31:11.083Z,53.77
2019-01-23T18:34:33.601Z,58.63
2019-01-23T18:37:33.012Z,52.63
2019-01-23T18:41:00.971Z,50.83
2019-01-23T18:44:21.104Z,52.33
2019-01-23T18:47:18.360Z,59.20
2019-01-23T18:50:38.775Z,56.73
2019-01-23T18:53:26.821Z,58.27
2019-01-23T18:56:15.029Z,53.37
2019-01-23T18:59:03.201Z,53.80
2019-01-23T19:02:03.398Z,64.53
2019-01-23T19:04:57.917Z,57.17
2019-01-23T19:07:54.816Z,61.43
2019-01-23T19:10:43.314Z,60.37
2019-01-23T19:13:43.328Z,55.87
2019-01-23T19:16:31.042Z,56.83
2019-01-23T19:19:19.746Z,64.67
2019-01-23T19:22:08.074Z,59.60
2019-01-23T19:24:56.344Z,50.60
2019-01-23T19:27:56.176Z,60.17
2019-01-23T19:30:44.743Z,57.10
2019-01-23T19:33:34.583Z,55.27
2019-01-23T19:36:22.880Z,57.93
2019-01-23T19:39:11.828Z,57.93
2019-01-23T19:42:00.736Z,57.67
2019-01-23T19:44:48.959Z,68.43
2019-01-23T19:47:36.740Z,57.27
2019-01-23T19:50:28.463Z,62.83
2019-01-23T19:53:16.557Z,63.13
2019-01-23T19:56:04.600Z,62.90
2019-01-23T19:58:53.423Z,66.40
2019-01-23T20:01:42.380Z,64.97
2019-01-23T20:04:31.343Z,59.43
2019-01-23T20:07:19.183Z,59.17
2019-01-23T20:10:14.327Z,60.10
2019-01-23T20:12:59.698Z,56.77
2019-01-23T20:15:47.619Z,55.10
2019-01-23T20:18:35.502Z,62.10
2019-01-23T20:21:23.662Z,58.43
2019-01-23T20:24:12.528Z,59.27
2019-01-23T20:27:00.566Z,56.47
2019-01-23T20:29:49.185Z,59.67
2019-01-23T20:32:37.438Z,64.50
2019-01-23T20:35:25.414Z,59.27
2019-01-23T20:38:13.583Z,61.53
2019-01-23T20:41:01.510Z,59.40
2019-01-23T20:43:49.571Z,65.07
2019-01-23T20:46:38.361Z,62.43
2019-01-23T20:49:26.926Z,69.70
2019-01-23T20:52:14.760Z,61.70
2019-01-23T20:55:03.508Z,64.77
2019-01-23T20:57:51.519Z,56.97
2019-01-23T21:00:40.516Z,64.53
2019-01-23T21:03:34.855Z,64.57
2019-01-23T21:06:18.431Z,60.80
2019-01-23T21:09:09.172Z,61.53
2019-01-23T21:11:57.927Z,55.30
2019-01-23T21:14:46.182Z,59.20
2019-01-23T21:17:34.638Z,63.33
2019-01-23T21:20:22.839Z,60.80
2019-01-23T21:23:13.103Z,67.83
2019-01-23T21:26:01.618Z,68.30
2019-01-23T21:28:49.591Z,65.20
2019-01-23T21:31:37.798Z,63.70
2019-01-23T21:34:26.083Z,66.93
2019-01-23T21:37:14.290Z,63.07
2019-01-23T21:40:02.690Z,66.00
2019-01-23T21:42:51.783Z,63.00
2019-01-23T21:45:39.775Z,72.00
2019-01-23T21:48:27.580Z,65.07
2019-01-23T21:51:15.507Z,63.80
2019-01-23T21:54:03.786Z,64.00
2019-01-23T21:56:51.918Z,78.17
2019-01-23T21:59:40.538Z,65.20
2019-01-23T22:02:28.582Z,62.10
2019-01-23T22:05:17.028Z,63.47
2019-01-23T22:08:05.118Z,66.57
2019-01-23T22:10:53.606Z,68.90
2019-01-23T22:13:41.394Z,71.40
2019-01-23T22:16:29.779Z,70.37
2019-01-23T22:19:18.279Z,61.63
2019-01-23T22:22:06.330Z,66.47
2019-01-23T22:24:54.995Z,65.53
2019-01-23T22:27:43.150Z,65.70
2019-01-23T22:30:32.039Z,71.30
2019-01-23T22:33:20.670Z,73.60
2019-01-23T22:36:08.914Z,68.97
2019-01-23T22:38:57.053Z,64.53
2019-01-23T22:41:45.250Z,69.73
2019-01-23T22:44:34.169Z,70.83
2019-01-23T22:47:22.658Z,64.10
2019-01-23T22:50:13.339Z,62.37
2019-01-23T22:53:01.967Z,61.37
2019-01-23T22:55:50.176Z,67.93
2019-01-23T22:58:38.348Z,62.13
2019-01-23T23:01:28.427Z,70.80
2019-01-23T23:04:16.667Z,66.97
2019-01-23T23:07:05.495Z,66.53
2019-01-23T23:09:53.714Z,64.90
2019-01-23T23:12:41.518Z,60.63
2019-01-23T23:15:29.911Z,69.80
2019-01-23T23:18:18.746Z,81.17
2019-01-23T23:21:07.023Z,67.20
2019-01-23T23:23:55.290Z,63.13
2019-01-23T23:26:43.884Z,60.17
2019-01-23T23:29:32.586Z,66.83
2019-01-23T23:32:20.778Z,67.67
2019-01-23T23:35:08.611Z,72.47
2019-01-23T23:37:56.811Z,66.90
2019-01-23T23:40:45.234Z,61.13
2019-01-23T23:43:33.359Z,68.73
2019-01-23T23:46:21.371Z,72.77
2019-01-23T23:49:09.396Z,68.03
2019-01-23T23:51:57.601Z,69.00
2019-01-23T23:54:46.030Z,67.37
2019-01-23T23:57:34.674Z,65.87
